Flight Track Log - Related Links

Times and Time Zones

All times are in EDT time to prevent confusion due to time zone crossing. See the GJS3618 flight status page for this flight to view local times or setup timezone preferences in your user account.

Time Position Orientation Groundspeed Altitude Reporting Facility
EDT Latitude Longitude Course Direction KTS MPH feet Rate Location/Type
Tue 08:46:23 PM 39.8833 -104.6167 105° East 184 212 6,200  Level Denver TRACON
Tue 08:47:17 PM 39.8667 -104.5333 105° East 228 262 8,700 2,111 Climbing Denver TRACON
Tue 08:48:11 PM 39.8714 -104.4633 85° East 241 277 10,000 1,617 Climbing Denver Center
Tue 08:49:12 PM 39.8708 -104.3567 90° East 290 334 11,800 1,415 Climbing Denver Center
Tue 08:50:14 PM 39.8731 -104.2378 89° East 330 380 12,900 1,452 Climbing Denver Center
Tue 08:51:16 PM 39.8747 -104.1031 89° East 370 426 14,800 1,951 Climbing Denver Center
Tue 08:52:17 PM 39.8764 -103.9539 89° East 384 442 16,900 2,000 Climbing Denver Center
Tue 08:53:19 PM 39.8850 -103.8103 85° East 401 461 18,900 1,756 Climbing Denver Center
Tue 08:54:20 PM 39.9175 -103.6706 73° East 394 453 20,500 1,512 Climbing Denver Center
Tue 08:55:22 PM 39.9494 -103.5231 74° East 420 483 22,000 1,366 Climbing Denver Center
Tue 08:56:23 PM 39.9794 -103.3711 76° East 427 491 23,300 1,366 Climbing Denver Center
Tue 08:57:25 PM 40.0122 -103.2136 75° East 444 511 24,800 1,355 Climbing Denver Center
Tue 08:58:27 PM 39.9981 -103.0531 97° East 449 517 26,100 1,366 Climbing Denver Center
Tue 08:59:28 PM 39.9544 -102.8964 110° East 452 520 27,600 1,317 Climbing Denver Center
Tue 09:00:30 PM 39.9131 -102.7386 109° East 454 522 28,800 1,317 Climbing Denver Center
Tue 09:01:31 PM 39.8800 -102.5744 105° East 447 514 30,300 1,512 Climbing Denver Center
Tue 09:02:33 PM 39.8964 -102.3983 83° East 441 507 31,900 1,317 Climbing Denver Center
Tue 09:03:34 PM 39.9342 -102.2569 71° East 435 501 33,000 537 Climbing Denver Center
Tue 09:04:36 PM 39.9797 -102.0864 71° East 445 512 33,000  Level Denver Center
Tue 09:05:37 PM 40.0125 -101.9575 72° East 463 533 33,000 146 Level Denver Center
Tue 09:06:39 PM 40.0606 -101.7717 71° East 482 555 33,300 537 Climbing Denver Center
Tue 09:07:40 PM 40.1061 -101.5839 72° East 486 559 34,100 1,171 Climbing Denver Center
Tue 09:08:42 PM 40.1447 -101.4281 72° East 476 548 35,700 1,122 Climbing Denver Center
Tue 09:09:43 PM 40.1903 -101.2514 71° East 462 532 36,400 585 Climbing Denver Center
Tue 09:10:45 PM 40.2283 -101.0967 72° East 465 535 36,900 400 Climbing Denver Center
Tue 09:11:58 PM 40.2736 -100.9158 72° East 470 541 37,300 356 Climbing Denver Center
Tue 09:13:00 PM 40.3169 -100.7339 73° East 472 543 37,700 435 Climbing Denver Center
Tue 09:14:02 PM 40.3611 -100.5514 72° East 474 545 38,200 439 Climbing Denver Center
Tue 09:15:03 PM 40.3994 -100.3958 72° East 472 543 38,600 390 Climbing Denver Center
Tue 09:16:05 PM 40.4428 -100.2131 73° East 472 543 39,000 195 Climbing Denver Center
Tue 09:17:06 PM 40.4797 -100.0567 73° East 471 542 39,000  Level Denver Center
Tue 09:18:08 PM 40.5164 -99.8981 73° East 475 547 39,000  Level Denver Center
Tue 09:19:09 PM 40.5622 -99.7072 72° East 471 542 39,000  Level Denver Center
Tue 09:20:11 PM 40.6000 -99.5417 73° East 473 544 39,000  Level Denver Center
Tue 09:21:12 PM 40.6381 -99.3744 73° East 476 548 39,000  Level Denver Center
Tue 09:22:14 PM 40.6767 -99.2081 73° East 476 548 39,000  Level Denver Center
Tue 09:23:15 PM 40.7150 -99.0406 73° East 479 551 39,000  Level Denver Center
Tue 09:24:17 PM 40.7514 -98.8725 74° East 480 552 39,000  Level Denver Center
Tue 09:25:18 PM 40.7897 -98.7053 73° East 481 554 39,000  Level Denver Center
Tue 09:25:40 PM 40.7942 -98.6842 74° East 482 555 39,000  Level Minneapolis Center
Tue 09:26:42 PM 40.8458 -98.4461 74° East 482 555 39,000  Level Minneapolis Center
Tue 09:27:56 PM 40.8858 -98.2694 73° East 480 552 39,000  Level Minneapolis Center
Tue 09:28:58 PM 40.9289 -98.0678 74° East 477 549 39,000  Level Minneapolis Center
Tue 09:30:00 PM 40.9647 -97.9006 74° East 475 547 39,000  Level Minneapolis Center
Tue 09:31:01 PM 41.0006 -97.7339 74° East 472 543 39,000  Level Minneapolis Center
Tue 09:32:03 PM 41.0358 -97.5681 74° East 471 542 39,000  Level Minneapolis Center
Tue 09:33:05 PM 41.0758 -97.3761 74° East 467 537 39,000  Level Minneapolis Center
Tue 09:34:06 PM 41.1097 -97.2100 75° East 467 537 39,000  Level Minneapolis Center
Tue 09:35:08 PM 41.1456 -97.0464 74° East 465 535 39,000  Level Minneapolis Center
Tue 09:36:09 PM 41.1792 -96.8800 75° East 466 536 39,000  Level Minneapolis Center
Tue 09:37:11 PM 41.2131 -96.7133 75° East 468 539 39,000  Level Minneapolis Center
Tue 09:38:12 PM 41.2475 -96.5436 75° East 476 548 39,000  Level Minneapolis Center
Tue 09:39:14 PM 41.2869 -96.3500 75° East 480 552 39,000  Level Minneapolis Center
Tue 09:40:15 PM 41.3178 -96.1917 75° East 483 556 39,000  Level Minneapolis Center
Tue 09:41:17 PM 41.3519 -96.0197 75° East 482 555 39,000  Level Minneapolis Center
Tue 09:42:18 PM 41.3844 -95.8486 76° East 478 550 39,000  Level Minneapolis Center
Tue 09:43:20 PM 41.4239 -95.6453 75° East 474 545 39,000  Level Minneapolis Center
Tue 09:44:33 PM 41.4578 -95.4661 76° East 472 543 39,000  Level Minneapolis Center
Tue 09:45:34 PM 41.4897 -95.2972 76° East 471 542 39,000  Level Minneapolis Center
Tue 09:46:36 PM 41.5281 -95.0950 76° East 470 541 39,000  Level Minneapolis Center
Tue 09:47:37 PM 41.5525 -94.9622 76° East 465 535 39,000  Level Minneapolis Center
Tue 09:48:38 PM 41.5903 -94.7603 76° East 467 537 39,000  Level Minneapolis Center
Tue 09:49:39 PM 41.6197 -94.5933 77° East 463 533 39,000  Level Minneapolis Center
Tue 09:50:41 PM 41.6517 -94.4253 76° East 466 536 39,000  Level Minneapolis Center
Tue 09:51:42 PM 41.6817 -94.2581 76° East 465 535 39,000  Level Minneapolis Center
Tue 09:52:43 PM 41.7111 -94.0906 77° East 464 534 39,000  Level Minneapolis Center
Tue 09:53:44 PM 41.7406 -93.9233 77° East 464 534 39,000  Level Minneapolis Center
Tue 09:54:46 PM 41.7733 -93.7331 77° East 464 534 39,000  Level Minneapolis Center
Tue 09:55:47 PM 41.8028 -93.5631 77° East 470 541 39,000  Level Minneapolis Center
Tue 09:56:48 PM 41.8269 -93.4261 77° East 473 544 39,000  Level Minneapolis Center
Tue 09:57:49 PM 41.8611 -93.2217 77° East 473 544 39,000  Level Minneapolis Center
Tue 09:58:51 PM 41.8897 -93.0508 77° East 473 544 39,000  Level Minneapolis Center
Tue 10:00:04 PM 41.9233 -92.8464 77° East 472 543 39,000  Level Minneapolis Center
Tue 10:01:06 PM 41.9547 -92.6575 77° East 471 542 39,000  Level Minneapolis Center
Tue 10:02:07 PM 41.9825 -92.4894 77° East 468 539 39,000  Level Minneapolis Center
Tue 10:03:08 PM 42.0100 -92.3211 78° East 469 540 39,000  Level Minneapolis Center
Tue 10:04:13 PM 42.0411 -92.1217 78° East 459 528 39,000  Level Chicago Center
Tue 10:05:15 PM 42.0681 -91.9564 78° East 458 527 39,000  Level Chicago Center
Tue 10:06:16 PM 42.0928 -91.7900 79° East 459 528 39,000  Level Chicago Center
Tue 10:07:17 PM 42.1181 -91.6247 78° East 459 528 39,000  Level Chicago Center
Tue 10:08:19 PM 42.1433 -91.4583 78° East 459 528 39,000  Level Chicago Center
Tue 10:09:20 PM 42.1686 -91.2917 78° East 461 531 39,000  Level Chicago Center
Tue 10:10:21 PM 42.1978 -91.0925 79° East 459 528 39,000  Level Chicago Center
Tue 10:11:22 PM 42.2214 -90.9244 79° East 463 533 39,000  Level Chicago Center
Tue 10:12:24 PM 42.2467 -90.7578 78° East 461 531 39,000  Level Chicago Center
Tue 10:13:25 PM 42.2714 -90.5908 79° East 461 531 39,000  Level Chicago Center
Tue 10:14:26 PM 42.2944 -90.4242 79° East 458 527 39,000  Level Chicago Center
Tue 10:15:27 PM 42.3178 -90.2597 79° East 455 524 39,000  Level Chicago Center
Tue 10:16:29 PM 42.3450 -90.0628 79° East 452 520 39,000  Level Chicago Center
Tue 10:17:30 PM 42.3681 -89.8944 79° East 454 522 39,000  Level Chicago Center
Tue 10:18:31 PM 42.3911 -89.7283 79° East 452 520 39,000  Level Chicago Center
Tue 10:19:32 PM 42.4139 -89.5625 79° East 451 519 39,000  Level Chicago Center
Tue 10:20:33 PM 42.4364 -89.3983 79° East 447 514 39,000 49 Level Chicago Center
Tue 10:21:35 PM 42.4569 -89.2319 80° East 449 517 39,100  Climbing Chicago Center
Tue 10:22:36 PM 42.4781 -89.0681 80° East 445 512 39,000 -98 Descending Chicago Center
Tue 10:23:37 PM 42.4997 -88.9042 80° East 443 510 38,900 -639 Descending Chicago Center
Tue 10:24:38 PM 42.5253 -88.7078 80° East 456 525 37,700 -1,082 Descending Chicago Center
Tue 10:25:39 PM 42.5478 -88.5308 80° East 473 544 36,700 -984 Descending Chicago Center
Tue 10:26:40 PM 42.5697 -88.3575 80° East 472 543 35,700 -984 Descending Chicago Center
Tue 10:27:41 PM 42.5908 -88.1872 80° East 462 532 34,700 -1,131 Descending Chicago Center
Tue 10:28:42 PM 42.6114 -88.0200 80° East 454 522 33,400 -1,366 Descending Chicago Center
Tue 10:29:44 PM 42.6306 -87.8519 81° East 452 520 31,900 -1,561 Descending Chicago Center
Tue 10:30:45 PM 42.6506 -87.6792 81° East 461 531 30,200 -2,016 Descending Chicago Center
Tue 10:31:46 PM 42.6708 -87.5058 81° East 465 535 27,800 -2,361 Descending Chicago Center
Tue 10:32:47 PM 42.6900 -87.3339 81° East 457 526 25,400 -2,361 Descending Chicago Center
Tue 10:33:48 PM 42.7108 -87.1639 80° East 457 526 23,000 -2,410 Descending Chicago Center
Tue 10:34:49 PM 42.7297 -86.9944 81° East 455 524 20,500 -2,390 Descending Chicago Center
Tue 10:35:51 PM 42.7467 -86.8297 82° East 446 513 18,100 -2,537 Descending Chicago Center
Tue 10:36:52 PM 42.7678 -86.6400 81° East 428 493 15,300 -2,361 Descending Chicago Center
Tue 10:37:53 PM 42.7828 -86.4978 82° East 390 449 13,300 -1,918 Descending Chicago Center
Tue 10:38:54 PM 42.7961 -86.3761 81° East 336 387 11,400 -1,721 Descending Chicago Center
Tue 10:39:55 PM 42.8069 -86.2697 82° East 294 338 9,800 -1,902 Descending Chicago Center
Tue 10:40:57 PM 42.8167 -86.1686 82° East 275 316 7,500 -2,195 Descending Chicago Center
Tue 10:41:58 PM 42.8242 -86.0697 84° East 268 308 5,300 -1,918 Descending Chicago Center
Tue 10:42:59 PM 42.8275 -85.9733 87° East 261 300 3,600 -1,131 Descending Chicago Center
Tue 10:44:00 PM 42.8394 -85.8606 82° East 257 296 3,000 -293 Descending Chicago Center
Tue 10:45:02 PM 42.8497 -85.7756 81° East 239 275 3,000  Level Chicago Center
Tue 10:46:03 PM 42.8594 -85.6922 81° East 228 262 3,000 -492 Level Chicago Center
Tue 10:47:04 PM 42.8675 -85.6228 81° East 206 237 2,000 -836 Descending Chicago Center
Tue 10:48:05 PM 42.8731 -85.5728 81° East 160 184 1,300 -537 Descending Chicago Center
Tue 10:49:07 PM 42.8794 -85.5172 81° East 147 169 900 -387 Descending Chicago Center
Tue 10:51:00 PM 42.8808 -85.5228 90° East  Level Estimated

Login

Don't have an account? Register now (free) for customized features, flight alerts, and more!